createdAt,value
2022-10-22T00:00:15.577Z,34.42
2022-10-22T00:03:19.807Z,34.17
2022-10-22T00:06:23.404Z,25.67
2022-10-22T00:09:26.880Z,48.47
2022-10-22T00:12:30.440Z,43.40
2022-10-22T00:15:34.525Z,33.83
2022-10-22T00:18:38.295Z,39.03
2022-10-22T00:21:42.187Z,46.08
2022-10-22T00:24:45.905Z,32.83
2022-10-22T00:27:49.980Z,31.55
2022-10-22T00:31:11.405Z,26.92
2022-10-22T00:34:14.796Z,23.13
2022-10-22T00:37:18.527Z,28.70
2022-10-22T00:40:21.634Z,36.63
2022-10-22T00:43:25.011Z,35.67
2022-10-22T00:46:29.445Z,39.00
2022-10-22T00:49:32.646Z,41.63
2022-10-22T00:52:36.773Z,31.48
2022-10-22T00:55:43.043Z,31.03
2022-10-22T00:58:54.891Z,31.55
2022-10-22T01:01:58.214Z,30.60
2022-10-22T01:05:01.226Z,34.05
2022-10-22T01:08:05.110Z,30.13
2022-10-22T01:11:21.391Z,30.80
2022-10-22T01:14:36.481Z,39.28
2022-10-22T01:17:52.836Z,55.28
2022-10-22T01:21:02.367Z,57.88
2022-10-22T01:24:32.996Z,77.15
2022-10-22T01:28:07.743Z,65.87
2022-10-22T01:31:12.889Z,70.75
2022-10-22T01:34:19.344Z,54.08
2022-10-22T01:37:25.534Z,60.22
2022-10-22T01:40:30.650Z,60.20
2022-10-22T01:43:34.343Z,62.70
2022-10-22T01:46:39.340Z,58.90
2022-10-22T02:48:36.090Z,80.00
2022-10-22T02:51:39.145Z,77.70
2022-10-22T02:54:42.114Z,87.80
2022-10-22T02:57:45.409Z,78.10
2022-10-22T03:00:49.571Z,73.30
2022-10-22T03:03:53.464Z,81.38
2022-10-22T03:06:56.827Z,81.60
2022-10-22T03:10:00.054Z,82.00
2022-10-22T03:13:03.829Z,84.25
2022-10-22T03:16:07.714Z,85.43
2022-10-22T03:19:10.877Z,69.40
2022-10-22T03:22:35.539Z,78.40
2022-10-22T03:25:42.354Z,75.00
2022-10-22T03:28:48.497Z,69.65
2022-10-22T03:31:52.020Z,71.32
2022-10-22T03:34:55.118Z,65.15
2022-10-22T03:38:02.462Z,63.83
2022-10-22T03:41:05.817Z,47.93
2022-10-22T03:44:09.740Z,38.67
2022-10-22T03:47:12.718Z,45.45
2022-10-22T03:50:15.814Z,45.85
2022-10-22T03:53:19.221Z,42.85
2022-10-22T03:56:22.543Z,40.77
2022-10-22T03:59:25.546Z,41.78
2022-10-22T04:02:28.846Z,42.75
2022-10-22T04:05:34.665Z,38.72
2022-10-22T04:08:40.419Z,31.42
2022-10-22T04:11:43.485Z,42.33
2022-10-22T04:14:46.580Z,41.13
2022-10-22T04:17:49.619Z,40.30
2022-10-22T04:20:53.403Z,37.15
2022-10-22T04:23:56.635Z,39.85
2022-10-22T04:27:00.285Z,42.33
2022-10-22T04:30:07.064Z,41.28
2022-10-22T04:33:10.129Z,42.83
2022-10-22T04:36:16.062Z,41.58
2022-10-22T04:39:19.028Z,44.97
2022-10-22T04:42:22.755Z,36.07
2022-10-22T04:45:25.807Z,50.10
2022-10-22T04:48:29.417Z,43.20
2022-10-22T04:51:33.815Z,39.85
2022-10-22T04:54:37.563Z,34.17
2022-10-22T04:57:41.622Z,41.90
2022-10-22T05:00:45.739Z,44.40
2022-10-22T05:03:51.360Z,54.22
2022-10-22T05:06:54.785Z,43.13
2022-10-22T05:09:57.691Z,38.42
2022-10-22T05:13:00.744Z,37.27
2022-10-22T05:16:04.638Z,27.67
2022-10-22T05:19:08.818Z,27.63
2022-10-22T05:22:11.951Z,40.78
2022-10-22T05:25:16.052Z,32.08
2022-10-22T05:28:19.661Z,26.93
2022-10-22T05:31:23.497Z,30.30
2022-10-22T05:34:26.501Z,27.50
2022-10-22T05:37:30.481Z,31.65
2022-10-22T05:40:33.423Z,37.90
2022-10-22T05:43:37.876Z,34.53
2022-10-22T05:46:41.553Z,29.38
2022-10-22T05:49:44.855Z,39.53
2022-10-22T05:52:48.545Z,34.70
2022-10-22T05:55:52.123Z,38.55
2022-10-22T05:58:56.111Z,29.90
2022-10-22T06:02:00.201Z,34.67
2022-10-22T06:05:03.280Z,30.75
2022-10-22T06:08:06.705Z,34.00
2022-10-22T06:11:09.791Z,33.00
2022-10-22T06:14:13.306Z,30.33
2022-10-22T06:17:16.969Z,35.35
2022-10-22T06:20:20.927Z,32.85
2022-10-22T06:23:24.557Z,27.67
2022-10-22T06:26:28.098Z,28.63
2022-10-22T06:29:31.757Z,29.03
2022-10-22T06:32:35.478Z,27.80
2022-10-22T06:35:38.470Z,32.90
2022-10-22T06:38:43.188Z,31.17
2022-10-22T06:41:46.613Z,31.42
2022-10-22T06:44:53.417Z,36.90
2022-10-22T06:47:57.171Z,42.80
2022-10-22T06:51:04.949Z,29.83
2022-10-22T06:54:08.691Z,34.00
2022-10-22T06:57:11.937Z,26.33
2022-10-22T07:00:15.775Z,28.30
2022-10-22T07:03:19.505Z,23.27
2022-10-22T07:06:24.271Z,22.05
2022-10-22T07:09:27.367Z,23.20
2022-10-22T07:12:30.344Z,27.48
2022-10-22T07:15:33.941Z,26.20
2022-10-22T07:18:39.021Z,27.35
2022-10-22T07:21:43.042Z,26.42
2022-10-22T07:24:45.994Z,26.95
2022-10-22T07:27:49.001Z,33.95
2022-10-22T07:30:52.730Z,44.63
2022-10-22T07:33:55.700Z,31.02
2022-10-22T07:36:59.903Z,27.38
2022-10-22T07:40:04.287Z,31.35
2022-10-22T07:43:07.829Z,38.35
2022-10-22T07:46:12.249Z,39.67
2022-10-22T07:49:16.247Z,30.80
2022-10-22T07:52:19.953Z,33.08
2022-10-22T07:55:23.595Z,31.38
2022-10-22T07:58:27.672Z,37.72
2022-10-22T08:01:31.433Z,50.87
2022-10-22T08:04:35.579Z,56.58
2022-10-22T08:07:38.768Z,65.88
2022-10-22T08:10:42.941Z,49.85
2022-10-22T08:13:46.735Z,56.40
2022-10-22T08:16:50.966Z,47.17
2022-10-22T08:19:54.953Z,42.75
2022-10-22T08:22:59.236Z,51.25
2022-10-22T08:26:03.622Z,43.65
2022-10-22T08:29:07.964Z,106.80
2022-10-22T08:32:10.967Z,106.80
2022-10-22T08:35:16.945Z,52.80
2022-10-22T08:38:21.567Z,35.53
2022-10-22T08:41:25.877Z,36.22
2022-10-22T08:44:51.903Z,37.63
2022-10-22T08:48:15.465Z,35.47
2022-10-22T08:51:24.094Z,37.10
2022-10-22T08:55:00.426Z,40.90
2022-10-22T08:58:30.254Z,31.02
2022-10-22T09:01:40.888Z,30.50
2022-10-22T09:04:50.917Z,37.30
2022-10-22T09:07:55.936Z,39.45
2022-10-22T09:11:06.655Z,43.33
2022-10-22T09:14:18.022Z,36.45
2022-10-22T09:17:56.083Z,46.90
2022-10-22T09:21:42.684Z,46.73
2022-10-22T09:24:49.603Z,45.97
2022-10-22T09:27:54.947Z,42.53
2022-10-22T09:34:08.668Z,58.60
2022-10-22T09:37:12.614Z,87.20
2022-10-22T09:40:16.443Z,151.52
2022-10-22T09:43:20.413Z,163.40
2022-10-22T09:46:26.260Z,170.23
2022-10-22T09:49:33.993Z,153.80
2022-10-22T09:52:41.012Z,136.93
2022-10-22T09:55:45.838Z,146.68
2022-10-22T09:58:51.802Z,135.90
2022-10-22T10:02:26.498Z,129.63
2022-10-22T10:05:38.790Z,139.00
2022-10-22T10:08:42.246Z,121.70
2022-10-22T10:11:52.721Z,135.88
2022-10-22T10:14:58.124Z,127.05
2022-10-22T10:18:10.628Z,109.88
2022-10-22T10:21:17.014Z,91.22
2022-10-22T10:24:45.181Z,63.80
2022-10-22T10:27:54.913Z,58.72
2022-10-22T10:31:11.181Z,64.03
2022-10-22T10:34:41.715Z,70.95
2022-10-22T10:38:01.297Z,56.22
2022-10-22T10:41:34.344Z,70.13
2022-10-22T10:44:43.976Z,91.93
2022-10-22T10:48:31.853Z,60.45
2022-10-22T10:52:12.105Z,69.95
2022-10-22T10:55:42.590Z,92.18
2022-10-22T10:58:58.473Z,84.70
2022-10-22T11:02:17.327Z,112.35
2022-10-22T11:05:49.740Z,86.25
2022-10-22T11:09:03.786Z,95.18
2022-10-22T11:12:23.640Z,88.90
2022-10-22T11:15:32.921Z,113.70
2022-10-22T11:18:56.338Z,151.38
2022-10-22T11:22:11.235Z,130.10
2022-10-22T11:25:20.601Z,138.18
2022-10-22T11:28:30.571Z,130.68
2022-10-22T11:31:34.911Z,132.37
2022-10-22T11:34:47.706Z,133.15
2022-10-22T11:37:52.631Z,138.15
2022-10-22T11:41:02.189Z,136.68
2022-10-22T11:44:26.881Z,147.02
2022-10-22T11:47:35.657Z,187.67
2022-10-22T11:50:57.047Z,179.93
2022-10-22T11:54:04.689Z,196.40
2022-10-22T11:57:17.688Z,168.88
2022-10-22T12:00:47.176Z,113.97
2022-10-22T12:03:53.245Z,124.43
2022-10-22T12:07:03.762Z,129.93
2022-10-22T12:10:21.910Z,139.13
2022-10-22T12:13:27.932Z,136.55
2022-10-22T12:16:55.241Z,132.23
2022-10-22T12:20:18.113Z,134.97
2022-10-22T12:23:29.796Z,275.20
2022-10-22T12:26:36.944Z,159.65
2022-10-22T12:29:41.128Z,136.43
2022-10-22T12:32:44.428Z,122.10
2022-10-22T12:35:49.015Z,151.83
2022-10-22T12:38:52.059Z,175.52
2022-10-22T12:41:56.741Z,194.40
2022-10-22T12:45:00.233Z,176.43
2022-10-22T12:48:15.779Z,185.07
2022-10-22T12:51:21.214Z,181.97
2022-10-22T12:54:28.859Z,159.45
2022-10-22T12:57:31.912Z,161.70
2022-10-22T13:00:37.208Z,284.58
2022-10-22T13:03:51.472Z,253.77
2022-10-22T13:07:15.749Z,239.80
2022-10-22T13:10:42.728Z,251.32
2022-10-22T13:13:46.751Z,253.13
2022-10-22T13:17:06.494Z,241.80
2022-10-22T13:20:24.507Z,248.40
2022-10-22T13:23:29.395Z,241.63
2022-10-22T13:26:38.492Z,346.85
2022-10-22T13:29:42.467Z,273.10
2022-10-22T13:32:51.632Z,251.05
2022-10-22T13:35:56.827Z,251.48
2022-10-22T13:39:00.994Z,222.57
2022-10-22T13:42:12.123Z,231.25
2022-10-22T13:45:16.708Z,205.15
2022-10-22T13:48:23.430Z,166.23
2022-10-22T13:51:35.557Z,158.48
2022-10-22T13:54:40.203Z,133.33
2022-10-22T13:57:43.930Z,142.38
2022-10-22T14:00:51.706Z,136.50
2022-10-22T14:03:58.667Z,128.80
2022-10-22T14:07:03.830Z,120.82
2022-10-22T14:10:27.783Z,141.63
2022-10-22T14:13:30.823Z,122.53
2022-10-22T14:16:34.945Z,135.43
2022-10-22T14:19:38.107Z,120.80
2022-10-22T14:22:41.770Z,107.07
2022-10-22T14:25:45.027Z,105.77
2022-10-22T14:29:08.789Z,102.38
2022-10-22T14:32:21.275Z,73.07
2022-10-22T14:35:24.825Z,63.13
2022-10-22T14:38:29.216Z,67.40
2022-10-22T14:41:33.330Z,66.07
2022-10-22T14:44:37.037Z,64.88
2022-10-22T14:47:40.299Z,72.90
2022-10-22T14:50:48.967Z,72.47
2022-10-22T14:53:52.423Z,93.13
2022-10-22T14:56:55.973Z,121.13
2022-10-22T14:59:59.317Z,115.57
2022-10-22T15:03:04.419Z,135.30
2022-10-22T15:06:08.787Z,134.88
2022-10-22T15:09:12.615Z,138.30
2022-10-22T15:12:16.578Z,131.60
2022-10-22T15:15:22.719Z,112.57
2022-10-22T15:18:27.775Z,93.60
2022-10-22T15:21:31.527Z,102.03
2022-10-22T15:24:35.827Z,119.28
2022-10-22T15:27:39.505Z,117.53
2022-10-22T15:30:43.470Z,105.28
2022-10-22T15:33:46.396Z,87.43
2022-10-22T15:36:51.096Z,85.68
2022-10-22T15:39:54.437Z,85.90
2022-10-22T15:42:58.512Z,80.53
2022-10-22T15:46:20.234Z,80.40
2022-10-22T15:49:26.508Z,78.03
2022-10-22T15:52:31.659Z,80.50
2022-10-22T15:55:35.823Z,73.05
2022-10-22T15:58:39.612Z,89.03
2022-10-22T16:01:43.850Z,75.25
2022-10-22T16:04:46.846Z,70.03
2022-10-22T16:07:52.157Z,55.38
2022-10-22T16:10:55.297Z,50.35
2022-10-22T16:14:01.169Z,36.20
2022-10-22T16:17:04.946Z,49.75
2022-10-22T16:20:08.382Z,41.65
2022-10-22T16:23:12.355Z,53.80
2022-10-22T16:26:18.355Z,50.80
2022-10-22T16:29:22.016Z,50.87
2022-10-22T16:32:24.993Z,43.70
2022-10-22T16:35:28.320Z,73.55
2022-10-22T16:38:31.647Z,67.60
2022-10-22T16:41:35.863Z,78.47
2022-10-22T16:44:39.740Z,79.43
2022-10-22T16:47:43.492Z,83.28
2022-10-22T16:50:47.869Z,79.00
2022-10-22T16:53:55.417Z,90.05
2022-10-22T16:56:59.299Z,73.25
2022-10-22T17:00:05.432Z,79.33
2022-10-22T17:03:13.114Z,80.63
2022-10-22T17:06:16.878Z,87.47
2022-10-22T17:09:21.159Z,88.53
2022-10-22T17:12:24.946Z,84.28
2022-10-22T17:15:29.035Z,77.40
2022-10-22T17:18:33.598Z,76.82
2022-10-22T17:21:37.734Z,80.88
2022-10-22T17:24:44.340Z,60.90
2022-10-22T17:27:48.527Z,53.00
2022-10-22T17:30:52.299Z,47.33
2022-10-22T17:33:57.475Z,50.40
2022-10-22T17:37:00.789Z,59.78
2022-10-22T17:40:06.174Z,48.08
2022-10-22T17:43:09.876Z,51.92
2022-10-22T17:46:24.959Z,62.83
2022-10-22T17:49:28.706Z,52.83
2022-10-22T17:52:32.896Z,55.08
2022-10-22T17:55:36.712Z,56.83
2022-10-22T17:58:40.081Z,52.90
2022-10-22T18:01:48.118Z,57.23
2022-10-22T18:04:53.275Z,61.65
2022-10-22T18:07:57.651Z,65.53
2022-10-22T18:11:02.033Z,51.83
2022-10-22T18:14:06.090Z,48.15
2022-10-22T18:17:09.652Z,52.00
2022-10-22T18:20:14.020Z,46.80
2022-10-22T18:23:18.091Z,47.55
2022-10-22T18:26:25.831Z,54.63
2022-10-22T18:29:30.921Z,50.38
2022-10-22T18:32:35.240Z,43.43
2022-10-22T18:35:39.116Z,58.55
2022-10-22T18:38:42.908Z,52.78
2022-10-22T18:41:46.567Z,58.00
2022-10-22T18:44:53.321Z,54.88
2022-10-22T18:47:57.311Z,58.70
2022-10-22T18:51:04.488Z,55.20
2022-10-22T18:54:22.063Z,58.90
2022-10-22T18:57:27.535Z,54.88
2022-10-22T19:00:31.871Z,55.67
2022-10-22T19:03:35.600Z,52.00
2022-10-22T19:06:42.998Z,54.05
2022-10-22T19:09:49.220Z,53.47
2022-10-22T19:12:53.182Z,55.83
2022-10-22T19:16:03.316Z,48.45
2022-10-22T19:19:08.839Z,49.07
2022-10-22T19:22:13.438Z,50.28
2022-10-22T19:25:17.139Z,46.45
2022-10-22T19:28:20.162Z,56.10
2022-10-22T19:31:25.989Z,39.28
2022-10-22T19:34:28.991Z,35.50
2022-10-22T19:37:32.881Z,42.05
2022-10-22T19:40:36.620Z,43.10
2022-10-22T19:43:41.363Z,43.63
2022-10-22T19:46:44.728Z,36.05
2022-10-22T19:49:48.475Z,30.73
2022-10-22T19:52:52.379Z,37.92
2022-10-22T19:55:57.455Z,36.17
2022-10-22T19:59:01.279Z,30.38
2022-10-22T20:02:05.156Z,40.22
2022-10-22T20:05:09.571Z,38.33
2022-10-22T20:08:14.070Z,32.00
2022-10-22T20:11:21.869Z,33.08
2022-10-22T20:14:25.977Z,25.48
2022-10-22T20:17:29.669Z,26.42
2022-10-22T20:20:33.649Z,23.67
2022-10-22T20:23:37.395Z,30.02
2022-10-22T20:26:41.431Z,28.27
2022-10-22T20:29:45.025Z,21.13
2022-10-22T20:32:48.549Z,21.80
2022-10-22T20:36:02.620Z,20.97
2022-10-22T20:39:09.935Z,23.08
2022-10-22T20:42:15.885Z,23.58
2022-10-22T20:45:19.887Z,28.80
2022-10-22T20:48:29.965Z,28.52
2022-10-22T20:51:35.821Z,27.77
2022-10-22T20:54:42.890Z,22.77
2022-10-22T20:57:47.186Z,29.60
2022-10-22T21:00:51.160Z,23.90
2022-10-22T21:03:55.103Z,26.67
2022-10-22T21:06:59.431Z,38.10
2022-10-22T21:10:03.402Z,56.53
2022-10-22T21:13:07.127Z,45.88
2022-10-22T21:16:13.364Z,43.88
2022-10-22T21:19:17.092Z,39.00
2022-10-22T21:22:21.172Z,39.73
2022-10-22T21:25:24.862Z,38.95
2022-10-22T21:31:33.578Z,34.78
2022-10-22T21:34:38.983Z,28.90
2022-10-22T21:37:43.291Z,28.93
2022-10-22T21:40:47.897Z,26.42
2022-10-22T21:43:52.281Z,33.55
2022-10-22T21:46:56.198Z,28.25
2022-10-22T21:50:00.291Z,24.73
2022-10-22T21:53:03.900Z,28.27
2022-10-22T21:56:09.021Z,20.92
2022-10-22T21:59:12.830Z,28.67
2022-10-22T22:02:16.932Z,28.58
2022-10-22T22:05:22.013Z,29.45
2022-10-22T22:08:26.758Z,28.87
2022-10-22T22:11:30.866Z,28.58
2022-10-22T22:14:34.915Z,55.03
2022-10-22T22:17:38.211Z,43.60
2022-10-22T22:20:42.185Z,47.88
2022-10-22T22:23:47.811Z,47.13
2022-10-22T22:27:07.132Z,40.83
2022-10-22T22:30:10.837Z,45.03
2022-10-22T22:33:13.798Z,34.53
2022-10-22T22:36:17.688Z,33.75
2022-10-22T22:39:23.650Z,27.50
2022-10-22T22:42:27.351Z,25.73
2022-10-22T22:45:30.600Z,29.95
2022-10-22T22:48:34.757Z,31.13
2022-10-22T22:51:37.980Z,26.20
2022-10-22T22:54:41.746Z,34.77
2022-10-22T22:57:45.020Z,33.00
2022-10-22T23:00:48.567Z,41.22
2022-10-22T23:04:04.761Z,35.72
2022-10-22T23:07:07.751Z,25.10
2022-10-22T23:10:11.935Z,30.57
2022-10-22T23:13:15.532Z,33.22
2022-10-22T23:16:24.110Z,28.23
2022-10-22T23:19:27.410Z,30.40
2022-10-22T23:22:31.519Z,27.67
2022-10-22T23:25:34.513Z,33.60
2022-10-22T23:28:37.913Z,36.33
2022-10-22T23:31:41.377Z,29.33
2022-10-22T23:34:44.721Z,38.75
2022-10-22T23:37:47.722Z,41.47
2022-10-22T23:40:58.121Z,37.13
2022-10-22T23:44:03.748Z,38.78
2022-10-22T23:47:06.714Z,32.53
2022-10-22T23:50:13.547Z,33.65
2022-10-22T23:53:17.506Z,32.15
2022-10-22T23:56:21.203Z,40.97
2022-10-22T23:59:24.277Z,32.00
